createdAt,value
2023-04-10T00:00:39.581Z,10.10
2023-04-10T00:03:08.604Z,10.07
2023-04-10T00:05:37.641Z,10.04
2023-04-10T00:08:06.367Z,10.04
2023-04-10T00:10:34.698Z,10.08
2023-04-10T00:13:09.610Z,10.12
2023-04-10T00:15:37.974Z,10.14
2023-04-10T00:18:07.534Z,10.16
2023-04-10T00:20:36.170Z,10.16
2023-04-10T00:23:07.774Z,10.18
2023-04-10T00:25:36.440Z,10.21
2023-04-10T00:28:05.335Z,10.24
2023-04-10T00:30:34.323Z,10.22
2023-04-10T00:33:12.993Z,10.17
2023-04-10T00:35:42.095Z,10.13
2023-04-10T00:38:10.844Z,10.08
2023-04-10T00:40:39.242Z,10.10
2023-04-10T00:43:09.349Z,10.13
2023-04-10T00:45:37.856Z,10.11
2023-04-10T00:48:15.013Z,10.04
2023-04-10T00:50:43.304Z,10.00
2023-04-10T00:53:11.982Z,9.99
2023-04-10T00:55:41.400Z,10.00
2023-04-10T00:58:14.804Z,10.01
2023-04-10T01:00:43.440Z,10.01
2023-04-10T01:03:13.977Z,10.00
2023-04-10T01:05:47.938Z,9.99
2023-04-10T01:08:39.981Z,10.00
2023-04-10T01:11:16.072Z,10.04
2023-04-10T01:13:53.885Z,10.04
2023-04-10T01:16:35.262Z,10.03
2023-04-10T01:19:12.387Z,10.01
2023-04-10T01:21:41.030Z,10.04
2023-04-10T01:24:30.682Z,10.07
2023-04-10T01:27:07.715Z,10.08
2023-04-10T01:29:37.436Z,10.07
2023-04-10T01:32:13.090Z,10.03
2023-04-10T01:34:46.159Z,10.03
2023-04-10T01:37:17.970Z,10.04
2023-04-10T01:39:47.966Z,10.06
2023-04-10T01:42:19.084Z,10.08
2023-04-10T01:44:47.984Z,10.06
2023-04-10T01:47:18.269Z,10.03
2023-04-10T01:49:48.480Z,10.03
2023-04-10T01:52:16.957Z,10.05
2023-04-10T01:54:50.322Z,10.08
2023-04-10T01:57:25.064Z,10.09
2023-04-10T01:59:58.870Z,10.06
2023-04-10T02:02:31.966Z,10.03
2023-04-10T02:05:00.864Z,10.04
2023-04-10T02:07:39.285Z,10.08
2023-04-10T02:11:03.748Z,10.10
2023-04-10T02:13:32.429Z,10.12
2023-04-10T02:16:02.747Z,10.08
2023-04-10T02:18:35.140Z,10.04
2023-04-10T02:21:04.194Z,10.04
2023-04-10T02:23:33.650Z,10.11
2023-04-10T02:26:09.753Z,10.16
2023-04-10T02:28:41.797Z,10.21
2023-04-10T02:31:10.199Z,10.22
2023-04-10T02:33:39.575Z,10.21
2023-04-10T02:36:08.510Z,10.23
2023-04-10T02:38:37.083Z,10.26
2023-04-10T02:41:06.352Z,10.28
2023-04-10T02:43:37.188Z,10.25
2023-04-10T02:46:06.499Z,10.16
2023-04-10T02:48:42.878Z,10.10
2023-04-10T02:51:11.338Z,10.05
2023-04-10T02:53:40.953Z,10.04
2023-04-10T02:56:11.987Z,10.01
2023-04-10T02:58:40.470Z,9.99
2023-04-10T03:01:08.848Z,9.96
2023-04-10T03:03:48.451Z,9.94
2023-04-10T03:06:31.445Z,9.95
2023-04-10T03:09:01.010Z,9.95
2023-04-10T03:11:29.602Z,9.93
2023-04-10T03:14:02.700Z,9.90
2023-04-10T03:16:31.490Z,9.86
2023-04-10T03:19:01.524Z,9.84
2023-04-10T03:21:30.839Z,9.86
2023-04-10T03:23:59.110Z,9.88
2023-04-10T03:26:28.242Z,9.89
2023-04-10T03:28:56.943Z,9.90
2023-04-10T03:31:26.095Z,9.89
2023-04-10T03:33:56.669Z,9.86
2023-04-10T03:36:25.812Z,9.83
2023-04-10T03:38:55.446Z,9.78
2023-04-10T03:41:25.947Z,9.73
2023-04-10T03:43:54.974Z,9.72
2023-04-10T03:46:23.814Z,9.76
2023-04-10T03:48:54.376Z,9.81
2023-04-10T03:51:24.932Z,9.85
2023-04-10T03:53:53.835Z,9.86
2023-04-10T03:56:22.870Z,9.85
2023-04-10T03:58:54.268Z,9.88
2023-04-10T04:01:22.923Z,9.91
2023-04-10T04:05:49.130Z,10.00
2023-04-10T04:08:39.585Z,9.96
2023-04-10T04:11:14.317Z,9.90
2023-04-10T04:13:54.223Z,9.88
2023-04-10T04:16:43.192Z,9.87
2023-04-10T04:19:27.578Z,9.86
2023-04-10T04:22:17.151Z,9.84
2023-04-10T04:25:00.846Z,9.81
2023-04-10T04:28:12.111Z,9.83
2023-04-10T04:31:01.283Z,9.88
2023-04-10T04:33:53.401Z,9.89
2023-04-10T04:36:28.968Z,9.86
2023-04-10T04:39:16.905Z,9.85
2023-04-10T04:41:48.256Z,9.88
2023-04-10T04:44:52.370Z,9.88
2023-04-10T04:47:52.524Z,9.84
2023-04-10T04:50:43.221Z,9.86
2023-04-10T04:53:19.074Z,9.89
2023-04-10T04:56:04.890Z,9.90
2023-04-10T04:58:39.216Z,9.90
2023-04-10T05:01:39.996Z,9.91
2023-04-10T05:04:32.401Z,9.94
2023-04-10T05:07:18.391Z,9.94
2023-04-10T05:10:16.151Z,9.91
2023-04-10T05:13:03.270Z,9.91
2023-04-10T05:15:47.145Z,9.93
2023-04-10T05:18:42.304Z,9.93
2023-04-10T05:21:28.697Z,9.95
2023-04-10T05:24:26.930Z,10.04
2023-04-10T05:27:12.927Z,10.09
2023-04-10T05:30:09.260Z,10.11
2023-04-10T05:32:57.760Z,10.11
2023-04-10T05:35:46.703Z,10.13
2023-04-10T05:38:38.903Z,10.12
2023-04-10T05:41:42.785Z,10.07
2023-04-10T05:44:44.786Z,10.07
2023-04-10T05:47:32.596Z,10.08
2023-04-10T05:50:21.585Z,10.07
2023-04-10T05:53:15.082Z,10.04
2023-04-10T05:56:08.004Z,10.05
2023-04-10T05:59:15.817Z,10.05
2023-04-10T06:01:44.613Z,10.05
2023-04-10T06:04:17.608Z,10.12
2023-04-10T06:06:48.752Z,10.20
2023-04-10T06:09:18.052Z,10.26
2023-04-10T06:11:46.330Z,10.27
2023-04-10T06:14:19.243Z,10.34
2023-04-10T06:16:47.911Z,10.42
2023-04-10T06:19:16.490Z,10.43
2023-04-10T06:21:44.968Z,10.41
2023-04-10T06:24:16.554Z,10.42
2023-04-10T06:26:48.413Z,10.46
2023-04-10T06:29:17.079Z,10.48
2023-04-10T06:31:46.057Z,10.49
2023-04-10T06:34:16.494Z,10.51
2023-04-10T06:36:53.677Z,10.55
2023-04-10T06:39:23.701Z,10.52
2023-04-10T06:41:52.399Z,10.50
2023-04-10T06:44:50.829Z,10.49
2023-04-10T06:47:19.843Z,10.53
2023-04-10T06:49:54.694Z,10.55
2023-04-10T06:52:23.396Z,10.58
2023-04-10T06:54:51.554Z,10.64
2023-04-10T06:57:19.830Z,10.76
2023-04-10T06:59:51.927Z,10.89
2023-04-10T07:02:21.884Z,11.01
2023-04-10T07:04:50.490Z,11.12
2023-04-10T07:07:20.019Z,11.26
2023-04-10T07:09:51.709Z,11.38
2023-04-10T07:12:20.870Z,11.45
2023-04-10T07:14:53.340Z,11.47
2023-04-10T07:17:22.468Z,11.45
2023-04-10T07:19:51.056Z,11.40
2023-04-10T07:22:20.924Z,11.38
2023-04-10T07:24:50.059Z,11.43
2023-04-10T07:27:21.209Z,11.51
2023-04-10T07:29:49.894Z,11.56
2023-04-10T07:32:18.761Z,11.54
2023-04-10T07:34:47.594Z,11.53
2023-04-10T07:37:16.140Z,11.51
2023-04-10T07:39:45.585Z,11.45
2023-04-10T07:42:13.926Z,11.29
2023-04-10T07:44:42.375Z,11.12
2023-04-10T07:47:10.861Z,11.01
2023-04-10T07:49:39.101Z,10.97
2023-04-10T07:52:07.701Z,10.91
2023-04-10T07:54:36.343Z,10.81
2023-04-10T07:57:05.773Z,10.72
2023-04-10T07:59:36.277Z,10.67
2023-04-10T08:02:06.346Z,10.63
2023-04-10T08:04:34.886Z,10.58
2023-04-10T08:07:08.020Z,10.55
2023-04-10T08:09:36.826Z,10.56
2023-04-10T08:12:06.366Z,10.57
2023-04-10T08:14:34.890Z,10.57
2023-04-10T08:17:03.727Z,10.62
2023-04-10T08:19:32.240Z,10.72
2023-04-10T08:22:01.050Z,10.86
2023-04-10T08:24:29.831Z,10.96
2023-04-10T08:27:18.384Z,11.05
2023-04-10T08:29:47.708Z,11.14
2023-04-10T08:32:16.787Z,11.24
2023-04-10T08:34:44.950Z,11.31
2023-04-10T08:37:16.119Z,11.39
2023-04-10T08:39:45.239Z,11.44
2023-04-10T08:42:14.386Z,11.46
2023-04-10T08:44:43.710Z,11.48
2023-04-10T08:47:12.084Z,11.51
2023-04-10T08:49:56.731Z,11.52
2023-04-10T08:52:26.269Z,11.52
2023-04-10T08:54:56.055Z,11.56
2023-04-10T08:57:25.025Z,11.70
2023-04-10T08:59:53.917Z,12.06
2023-04-10T09:02:25.010Z,12.47
2023-04-10T09:04:56.709Z,12.75
2023-04-10T09:07:25.086Z,12.92
2023-04-10T09:09:53.700Z,13.02
2023-04-10T09:12:22.904Z,13.03
2023-04-10T09:14:53.638Z,12.92
2023-04-10T09:17:30.703Z,12.78
2023-04-10T09:20:02.764Z,12.70
2023-04-10T09:22:32.648Z,12.69
2023-04-10T09:25:41.236Z,12.89
2023-04-10T09:28:11.921Z,13.44
2023-04-10T09:30:41.496Z,14.06
2023-04-10T09:33:25.381Z,14.43
2023-04-10T09:35:55.060Z,14.54
2023-04-10T09:38:23.780Z,14.54
2023-04-10T09:40:54.894Z,14.43
2023-04-10T09:43:25.592Z,14.26
2023-04-10T09:45:57.935Z,14.03
2023-04-10T09:48:29.491Z,13.80
2023-04-10T09:50:57.913Z,13.65
2023-04-10T09:53:29.376Z,13.55
2023-04-10T09:55:58.415Z,13.42
2023-04-10T09:58:26.732Z,13.29
2023-04-10T10:00:57.898Z,13.26
2023-04-10T10:03:27.877Z,13.30
2023-04-10T10:05:56.372Z,13.38
2023-04-10T10:08:26.675Z,13.58
2023-04-10T10:10:57.810Z,13.97
2023-04-10T10:13:46.501Z,14.46
2023-04-10T10:16:19.522Z,14.86
2023-04-10T10:19:11.129Z,14.96
2023-04-10T10:21:39.590Z,15.00
2023-04-10T10:24:09.494Z,14.99
2023-04-10T10:26:39.547Z,15.00
2023-04-10T10:29:11.609Z,15.00
2023-04-10T10:31:42.608Z,15.03
2023-04-10T10:34:11.373Z,15.00
2023-04-10T10:36:40.404Z,14.79
2023-04-10T10:39:47.552Z,14.59
2023-04-10T10:42:45.493Z,14.52
2023-04-10T10:45:24.352Z,14.39
2023-04-10T10:47:54.695Z,14.28
2023-04-10T10:50:24.997Z,14.25
2023-04-10T10:52:54.334Z,14.33
2023-04-10T10:55:22.594Z,14.41
2023-04-10T10:57:55.062Z,14.45
2023-04-10T11:00:25.162Z,14.50
2023-04-10T11:03:08.981Z,14.60
2023-04-10T11:05:53.018Z,14.81
2023-04-10T11:08:47.913Z,15.02
2023-04-10T11:11:27.587Z,15.29
2023-04-10T11:13:56.719Z,15.62
2023-04-10T11:16:41.125Z,15.86
2023-04-10T11:19:20.019Z,16.11
2023-04-10T11:22:04.325Z,16.27
2023-04-10T11:24:59.032Z,16.47
2023-04-10T11:27:39.606Z,16.64
2023-04-10T11:30:28.098Z,16.73
2023-04-10T11:32:57.454Z,16.79
2023-04-10T11:35:26.179Z,16.83
2023-04-10T11:38:11.389Z,16.72
2023-04-10T11:41:04.486Z,16.49
2023-04-10T11:43:34.058Z,16.26
2023-04-10T11:46:04.021Z,16.16
2023-04-10T11:48:33.068Z,16.23
2023-04-10T11:51:12.142Z,16.35
2023-04-10T11:53:41.198Z,16.41
2023-04-10T11:56:21.401Z,16.46
2023-04-10T11:58:51.443Z,16.49
2023-04-10T12:01:25.581Z,16.46
2023-04-10T12:03:54.170Z,16.47
2023-04-10T12:06:24.559Z,16.49
2023-04-10T12:08:53.134Z,16.48
2023-04-10T12:11:24.156Z,16.34
2023-04-10T12:13:59.943Z,16.15
2023-04-10T12:16:33.945Z,15.91
2023-04-10T12:19:03.655Z,15.66
2023-04-10T12:21:36.527Z,15.50
2023-04-10T12:24:07.672Z,15.47
2023-04-10T12:26:36.669Z,15.77
2023-04-10T12:29:07.615Z,16.39
2023-04-10T12:31:41.109Z,17.08
2023-04-10T12:34:11.421Z,17.68
2023-04-10T12:36:39.817Z,17.99
2023-04-10T12:39:22.706Z,17.97
2023-04-10T12:41:51.630Z,17.92
2023-04-10T12:44:20.952Z,17.85
2023-04-10T12:46:49.982Z,17.75
2023-04-10T12:49:21.388Z,17.63
2023-04-10T12:51:51.924Z,17.58
2023-04-10T12:54:37.423Z,17.55
2023-04-10T12:57:07.517Z,17.30
2023-04-10T12:59:36.221Z,17.10
2023-04-10T13:02:04.651Z,17.00
2023-04-10T13:04:34.257Z,16.87
2023-04-10T13:07:03.202Z,16.72
2023-04-10T13:09:31.540Z,16.82
2023-04-10T13:12:08.991Z,16.88
2023-04-10T13:14:38.048Z,16.76
2023-04-10T13:17:06.399Z,16.72
2023-04-10T13:19:34.775Z,16.69
2023-04-10T13:22:05.204Z,16.58
2023-04-10T13:24:33.695Z,16.37
2023-04-10T13:27:04.828Z,16.14
2023-04-10T13:29:34.247Z,15.89
2023-04-10T13:32:05.687Z,15.72
2023-04-10T13:34:43.081Z,15.57
2023-04-10T13:37:13.408Z,15.42
2023-04-10T13:39:43.589Z,15.29
2023-04-10T13:42:11.782Z,15.18
2023-04-10T13:44:41.333Z,15.18
2023-04-10T13:47:15.480Z,15.26
2023-04-10T13:49:45.031Z,15.31
2023-04-10T13:52:14.021Z,15.32
2023-04-10T13:54:46.392Z,15.15
2023-04-10T13:57:15.085Z,14.84
2023-04-10T13:59:44.963Z,14.42
2023-04-10T14:02:14.121Z,14.05
2023-04-10T14:04:43.022Z,13.72
2023-04-10T14:07:12.257Z,13.46
2023-04-10T14:09:51.768Z,13.33
2023-04-10T14:12:20.261Z,13.22
2023-04-10T14:14:49.452Z,13.16
2023-04-10T14:17:18.986Z,13.22
2023-04-10T14:19:49.069Z,13.39
2023-04-10T14:22:18.365Z,13.71
2023-04-10T14:24:46.867Z,14.23
2023-04-10T14:27:18.711Z,14.82
2023-04-10T14:29:54.424Z,15.48
2023-04-10T14:32:23.671Z,15.86
2023-04-10T14:34:52.766Z,16.13
2023-04-10T14:37:22.681Z,16.43
2023-04-10T14:39:52.793Z,16.89
2023-04-10T14:42:21.685Z,17.32
2023-04-10T14:44:50.166Z,17.75
2023-04-10T14:47:18.637Z,18.11
2023-04-10T14:49:47.232Z,18.27
2023-04-10T14:52:15.819Z,18.36
2023-04-10T14:54:44.135Z,18.45
2023-04-10T14:57:15.251Z,18.58
2023-04-10T14:59:44.962Z,18.50
2023-04-10T15:02:13.504Z,18.12
2023-04-10T15:04:48.289Z,18.00
2023-04-10T15:07:16.556Z,18.17
2023-04-10T15:09:44.928Z,18.47
2023-04-10T15:12:18.533Z,18.77
2023-04-10T15:14:49.950Z,19.09
2023-04-10T15:17:18.584Z,19.41
2023-04-10T15:19:54.115Z,19.68
2023-04-10T15:22:25.984Z,19.98
2023-04-10T15:24:54.362Z,20.14
2023-04-10T15:27:22.837Z,20.11
2023-04-10T15:29:52.044Z,19.79
2023-04-10T15:32:25.986Z,19.54
2023-04-10T15:34:55.043Z,19.51
2023-04-10T15:37:26.080Z,19.30
2023-04-10T15:39:57.735Z,18.90
2023-04-10T15:42:25.835Z,18.43
2023-04-10T15:44:54.187Z,18.05
2023-04-10T15:47:24.170Z,17.74
2023-04-10T15:50:01.393Z,17.45
2023-04-10T15:52:32.948Z,17.15
2023-04-10T15:55:01.960Z,16.82
2023-04-10T15:57:32.978Z,16.46
2023-04-10T16:00:04.258Z,16.06
2023-04-10T16:02:34.157Z,15.67
2023-04-10T16:05:06.018Z,15.30
2023-04-10T16:07:44.007Z,14.98
2023-04-10T16:10:13.715Z,14.64
2023-04-10T16:12:48.041Z,14.31
2023-04-10T16:15:17.339Z,14.01
2023-04-10T16:17:45.748Z,13.71
2023-04-10T16:20:21.166Z,13.44
2023-04-10T16:24:36.729Z,13.16
2023-04-10T16:27:08.546Z,12.99
2023-04-10T16:29:38.430Z,12.89
2023-04-10T16:32:07.140Z,12.80
2023-04-10T16:34:36.005Z,12.71
2023-04-10T16:37:08.191Z,12.59
2023-04-10T16:39:37.063Z,12.45
2023-04-10T16:42:05.828Z,12.34
2023-04-10T16:44:34.156Z,12.26
2023-04-10T16:47:04.765Z,12.18
2023-04-10T16:49:33.245Z,12.07
2023-04-10T16:52:02.484Z,11.95
2023-04-10T16:54:31.848Z,11.81
2023-04-10T16:57:09.952Z,11.70
2023-04-10T16:59:47.461Z,11.63
2023-04-10T17:02:16.714Z,11.57
2023-04-10T17:04:45.648Z,11.51
2023-04-10T17:07:17.503Z,11.46
2023-04-10T17:09:45.927Z,11.33
2023-04-10T17:12:25.131Z,11.18
2023-04-10T17:15:07.113Z,11.06
2023-04-10T17:17:35.542Z,10.96
2023-04-10T17:20:04.998Z,10.89
2023-04-10T17:22:33.815Z,10.86
2023-04-10T17:25:04.327Z,10.85
2023-04-10T17:27:34.828Z,10.84
2023-04-10T17:30:13.051Z,10.78
2023-04-10T17:32:46.256Z,10.73
2023-04-10T17:35:16.076Z,10.65
2023-04-10T17:37:45.775Z,10.58
2023-04-10T17:40:14.371Z,10.53
2023-04-10T17:42:45.188Z,10.54
2023-04-10T17:45:13.990Z,10.51
2023-04-10T17:47:42.729Z,10.47
2023-04-10T17:50:12.384Z,10.41
2023-04-10T17:52:41.581Z,10.35
2023-04-10T17:55:12.323Z,10.29
2023-04-10T17:57:54.322Z,10.27
2023-04-10T18:00:28.125Z,10.31
2023-04-10T18:03:01.369Z,10.31
2023-04-10T18:05:30.304Z,10.27
2023-04-10T18:08:00.626Z,10.22
2023-04-10T18:10:31.568Z,10.18
2023-04-10T18:13:00.776Z,10.12
2023-04-10T18:15:33.134Z,10.10
2023-04-10T18:18:02.315Z,10.10
2023-04-10T18:20:31.445Z,10.08
2023-04-10T18:23:00.015Z,10.07
2023-04-10T18:25:29.317Z,10.03
2023-04-10T18:30:33.471Z,9.99
2023-04-10T18:33:05.327Z,10.00
2023-04-10T18:35:35.106Z,10.04
2023-04-10T18:38:03.720Z,10.02
2023-04-10T18:40:38.842Z,9.97
2023-04-10T18:43:07.732Z,9.94
2023-04-10T18:45:36.736Z,9.92
2023-04-10T18:48:05.929Z,9.85
2023-04-10T18:50:38.736Z,9.77
2023-04-10T18:53:11.086Z,9.70
2023-04-10T18:55:40.123Z,9.71
2023-04-10T18:58:09.274Z,9.68
2023-04-10T19:00:38.472Z,9.63
2023-04-10T19:03:10.297Z,9.56
2023-04-10T19:05:39.664Z,9.47
2023-04-10T19:08:08.038Z,9.41
2023-04-10T19:10:37.625Z,9.37
2023-04-10T19:13:09.684Z,9.31
2023-04-10T19:15:43.524Z,9.21
2023-04-10T19:18:16.409Z,9.10
2023-04-10T19:20:52.698Z,8.98
2023-04-10T19:23:26.558Z,8.90
2023-04-10T19:25:55.965Z,8.85
2023-04-10T19:28:27.237Z,8.87
2023-04-10T19:31:18.314Z,8.94
2023-04-10T19:33:47.475Z,8.99
2023-04-10T19:36:18.095Z,9.06
2023-04-10T19:38:49.283Z,9.12
2023-04-10T19:41:18.759Z,9.21
2023-04-10T19:43:47.397Z,9.30
2023-04-10T19:46:19.749Z,9.34
2023-04-10T19:48:54.912Z,9.38
2023-04-10T19:51:23.571Z,9.34
2023-04-10T19:53:51.991Z,9.27
2023-04-10T19:56:21.467Z,9.19
2023-04-10T19:58:50.752Z,9.16
2023-04-10T20:01:22.568Z,9.18
2023-04-10T20:03:53.122Z,9.18
2023-04-10T20:06:22.270Z,9.15
2023-04-10T20:08:54.714Z,9.10
2023-04-10T20:11:30.862Z,9.03
2023-04-10T20:14:02.226Z,8.93
2023-04-10T20:16:31.258Z,8.90
2023-04-10T20:19:00.315Z,8.90
2023-04-10T20:21:32.489Z,8.89
2023-04-10T20:24:02.610Z,8.88
2023-04-10T20:26:31.404Z,8.85
2023-04-10T20:29:00.909Z,8.83
2023-04-10T20:31:29.462Z,8.81
2023-04-10T20:33:58.066Z,8.81
2023-04-10T20:36:27.056Z,8.80
2023-04-10T20:38:56.202Z,8.75
2023-04-10T20:41:26.249Z,8.69
2023-04-10T20:43:56.188Z,8.61
2023-04-10T20:46:27.849Z,8.50
2023-04-10T20:48:59.815Z,8.41
2023-04-10T20:51:29.115Z,8.41
2023-04-10T20:53:57.490Z,8.39
2023-04-10T20:56:33.185Z,8.37
2023-04-10T20:59:11.460Z,8.30
2023-04-10T21:01:43.233Z,8.20
2023-04-10T21:04:12.928Z,8.12
2023-04-10T21:06:41.515Z,8.07
2023-04-10T21:09:09.988Z,8.06
2023-04-10T21:11:38.473Z,8.07
2023-04-10T21:14:10.033Z,8.06
2023-04-10T21:16:41.813Z,8.06
2023-04-10T21:19:10.472Z,8.03
2023-04-10T21:21:45.505Z,7.99
2023-04-10T21:24:14.600Z,7.94
2023-04-10T21:26:43.188Z,7.96
2023-04-10T21:29:12.798Z,8.01
2023-04-10T21:31:41.692Z,8.05
2023-04-10T21:34:17.851Z,8.08
2023-04-10T21:36:46.128Z,8.09
2023-04-10T21:39:14.815Z,8.08
2023-04-10T21:41:43.298Z,8.05
2023-04-10T21:44:12.905Z,7.97
2023-04-10T21:46:42.001Z,7.95
2023-04-10T21:49:11.922Z,7.96
2023-04-10T21:51:43.364Z,8.02
2023-04-10T21:54:12.047Z,8.03
2023-04-10T21:56:41.573Z,7.96
2023-04-10T21:59:11.875Z,7.93
2023-04-10T22:01:42.452Z,7.90
2023-04-10T22:04:10.970Z,7.97
2023-04-10T22:06:39.691Z,8.08
2023-04-10T22:09:09.899Z,8.16
2023-04-10T22:11:39.351Z,8.22
2023-04-10T22:14:17.015Z,8.24
2023-04-10T22:16:46.590Z,8.22
2023-04-10T22:19:16.424Z,8.17
2023-04-10T22:21:49.515Z,8.16
2023-04-10T22:24:18.611Z,8.18
2023-04-10T22:26:47.122Z,8.18
2023-04-10T22:29:16.494Z,8.17
2023-04-10T22:31:44.983Z,8.13
2023-04-10T22:34:13.457Z,8.08
2023-04-10T22:36:44.805Z,7.99
2023-04-10T22:39:13.594Z,7.89
2023-04-10T22:41:45.456Z,7.86
2023-04-10T22:44:14.961Z,7.85
2023-04-10T22:46:50.608Z,7.84
2023-04-10T22:49:19.921Z,7.82
2023-04-10T22:51:48.292Z,7.78
2023-04-10T22:54:17.834Z,7.74
2023-04-10T22:56:49.027Z,7.66
2023-04-10T22:59:19.381Z,7.57
2023-04-10T23:01:48.248Z,7.52
2023-04-10T23:04:17.488Z,7.51
2023-04-10T23:06:46.046Z,7.54
2023-04-10T23:09:15.053Z,7.54
2023-04-10T23:11:47.922Z,7.51
2023-04-10T23:14:18.345Z,7.46
2023-04-10T23:16:47.659Z,7.36
2023-04-10T23:19:16.330Z,7.25
2023-04-10T23:21:47.476Z,7.14
2023-04-10T23:24:15.865Z,7.05
2023-04-10T23:26:45.567Z,6.98
2023-04-10T23:29:15.587Z,6.90
2023-04-10T23:31:44.331Z,6.81
2023-04-10T23:34:22.895Z,6.71
2023-04-10T23:36:51.480Z,6.64
2023-04-10T23:39:20.470Z,6.60
2023-04-10T23:41:56.195Z,6.56
2023-04-10T23:44:25.030Z,6.51
2023-04-10T23:46:53.321Z,6.41
2023-04-10T23:49:22.646Z,6.33
2023-04-10T23:51:51.172Z,6.31
2023-04-10T23:54:21.087Z,6.33
2023-04-10T23:56:49.979Z,6.36
2023-04-10T23:59:20.301Z,6.38
